This is the latest recevied weather packets stored in our database for station/object W9LRT-WX. If no packets are shown the sender has not sent any weather packets the latest 1 day(s).
| Time | Temp. | Humidity | Pressure | Rain* | Wind** | Luminosity | Snow |
|---|---|---|---|---|---|---|---|
| 1778072820 | 8.33° C | 58% | 1011.3 hPa | 0 mm | - | 360 W/m² | - |
| 1778071013 | 7.78° C | 64% | 1011.1 hPa | 0 mm | - | 262 W/m² | - |
| 1778066512 | 6.11° C | 72% | 1010.3 hPa | 0 mm | - | 60 W/m² | - |
| 1778061109 | 6.11° C | 74% | 1009.4 hPa | 0 mm | - | 0 W/m² | - |
| 1778060208 | 6.67° C | 74% | 1009.3 hPa | 0 mm | - | 0 W/m² | - |
| 1778059308 | 6.67° C | 75% | 1009.4 hPa | 0 mm | - | 0 W/m² | - |
| 1778054809 | 7.78° C | 88% | 1008.4 hPa | 0 mm | - | 0 W/m² | - |
| 1778053005 | 8.33° C | 88% | 1008.2 hPa | 0 mm | - | 0 W/m² | - |
| 1778052106 | 8.33° C | 89% | 1008.4 hPa | 0 mm | - | 0 W/m² | - |
| 1778051204 | 8.33° C | 90% | 1008.2 hPa | 0 mm | - | 0 W/m² | - |
| 1778050304 | 8.33° C | 90% | 1008.4 hPa | 0 mm | - | 0 W/m² | - |
| 1778049405 | 8.33° C | 90% | 1008.4 hPa | 0 mm | - | 0 W/m² | - |
| 1778048502 | 8.33° C | 90% | 1008.3 hPa | 0 mm | - | 0 W/m² | - |
| 1778046701 | 8.33° C | 90% | 1008.5 hPa | 0 mm | - | 0 W/m² | - |
| 1778043996 | 8.33° C | 89% | 1008.8 hPa | 0 mm | - | 0 W/m² | - |
| 1778043096 | 8.33° C | 89% | 1008.7 hPa | 0 mm | - | 0 W/m² | - |
| 1778041294 | 8.33° C | 88% | 1008.4 hPa | 0 mm | - | 0 W/m² | - |
| 1778040392 | 8.33° C | 88% | 1008.4 hPa | 0 mm | - | 0 W/m² | - |
| 1778039494 | 8.89° C | 88% | 1008 hPa | 0 mm | - | 0 W/m² | - |
| 1778038593 | 8.89° C | 87% | 1008.3 hPa | 0 mm | - | 0 W/m² | - |
| 1778037692 | 8.89° C | 87% | 1008.3 hPa | 0 mm | - | 0 W/m² | - |
| 1778036792 | 8.89° C | 86% | 1008.3 hPa | 0 mm | - | 0 W/m² | - |
| 1778034991 | 8.89° C | 85% | 1008.2 hPa | 0 mm | - | 0 W/m² | - |
| 1778031389 | 9.44° C | 82% | 1007.7 hPa | 0 mm | - | 0 W/m² | - |
| 1778030489 | 9.44° C | 79% | 1007.5 hPa | 0 mm | - | 0 W/m² | - |
* Rain latest hour (hover to see other rain measurements)
** Current wind speed in m/s (hover to see current wind gust speed)